Time;durP1;ratioP1;P1;durP2;ratioP2;P2;SDS_P1;SDS_P2;PMS_P1;PMS_P2;Temp;Humidity;BMP_temperature;BMP_pressure;BME280_temperature;BME280_humidity;BME280_pressure;Samples;Min_cycle;Max_cycle;Signal;HPM_P1;HPM_P2
2022/10/04 00:02:14;;;;;;;;;;;;;;;11.97;100.00;102324.75;5018689;28;19929;-43
2022/10/04 00:04:51;;;;;;;;;;;;;;;11.94;100.00;102314.31;5019706;28;19917;-42
2022/10/04 00:07:18;;;;;;;;;;;;;;;11.91;100.00;102315.44;5016422;28;19952;-41
2022/10/04 00:09:46;;;;;;;;;;;;;;;11.91;100.00;102311.88;5019536;28;19917;-41
2022/10/04 00:12:26;;;;;;;;;;;;;;;11.90;100.00;102302.16;5018315;28;20370;-46
2022/10/04 00:14:52;;;;;;;;;;;;;;;11.90;100.00;102300.31;5016940;28;19963;-43
2022/10/04 00:17:23;;;;;;;;;;;;;;;11.86;100.00;102288.19;5018477;28;19952;-41
2022/10/04 00:19:49;;;;;;;;;;;;;;;11.84;100.00;102297.31;5019546;28;19920;-41
2022/10/04 00:22:19;;;;;;;;;;;;;;;11.83;100.00;102291.13;5018503;28;19932;-42
2022/10/04 00:25:03;;;;;;;;;;;;;;;11.83;100.00;102296.47;5015856;28;19913;-42
2022/10/04 00:27:28;;;;;;;;;;;;;;;11.85;100.00;102291.84;5017921;28;19921;-46
2022/10/04 00:30:03;;;;;;;;;;;;;;;11.87;100.00;102286.34;5018144;28;19921;-42
2022/10/04 00:32:31;;;;;;;;;;;;;;;11.90;100.00;102280.72;5017977;28;19936;-41
2022/10/04 00:34:57;;;;;;;;;;;;;;;11.92;100.00;102282.31;5018432;28;20206;-43
2022/10/04 00:37:24;;;;;;;;;;;;;;;11.92;100.00;102286.81;5018301;28;20113;-41
2022/10/04 00:39:55;;;;;;;;;;;;;;;11.92;100.00;102290.34;5018457;28;20397;-41
2022/10/04 00:42:39;;;;;;;;;;;;;;;11.96;100.00;102287.41;5017508;28;19924;-43
2022/10/04 00:45:13;;;;;;;;;;;;;;;11.99;100.00;102289.81;5017282;28;19917;-43
2022/10/04 00:47:44;;;;;;;;;;;;;;;11.99;100.00;102284.47;5019159;28;19913;-45
2022/10/04 00:50:14;;;;;;;;;;;;;;;11.96;100.00;102282.03;5018611;28;19975;-44
2022/10/04 00:52:43;;;;;;;;;;;;;;;11.94;100.00;102282.19;5018283;28;19969;-43
2022/10/04 00:55:13;;;;;;;;;;;;;;;11.93;100.00;102278.66;5018346;28;19917;-44
2022/10/04 00:57:42;;;;;;;;;;;;;;;11.92;100.00;102266.25;5017883;28;19935;-45
2022/10/04 01:00:11;;;;;;;;;;;;;;;11.87;100.00;102263.09;5017309;28;19917;-43
2022/10/04 01:02:43;;;;;;;;;;;;;;;11.84;100.00;102254.50;5008982;28;19921;-43
2022/10/04 01:05:27;;;;;;;;;;;;;;;11.77;100.00;102246.97;5017849;28;20016;-43
2022/10/04 01:08:18;;;;;;;;;;;;;;;11.73;100.00;102250.94;5017641;28;20295;-44
2022/10/04 01:10:48;;;;;;;;;;;;;;;11.66;100.00;102241.75;5004482;28;19987;-43
2022/10/04 01:13:20;;;;;;;;;;;;;;;11.61;100.00;102240.44;5014706;28;19957;-44
2022/10/04 01:16:00;;;;;;;;;;;;;;;11.52;100.00;102247.44;5015470;28;19928;-42
2022/10/04 01:18:25;;;;;;;;;;;;;;;11.42;100.00;102255.41;5017635;28;19924;-44
2022/10/04 01:20:50;;;;;;;;;;;;;;;11.38;100.00;102245.94;5018472;28;19917;-43
2022/10/04 01:23:32;;;;;;;;;;;;;;;11.37;100.00;102249.59;5018539;28;19926;-42
2022/10/04 01:25:58;;;;;;;;;;;;;;;11.35;100.00;102249.75;5013404;28;20283;-43
2022/10/04 01:28:23;;;;;;;;;;;;;;;11.35;100.00;102246.22;5016795;28;19963;-41
2022/10/04 01:30:48;;;;;;;;;;;;;;;11.37;100.00;102237.09;5015093;28;19940;-42
2022/10/04 01:33:14;;;;;;;;;;;;;;;11.42;100.00;102238.50;5015380;28;19917;-44
2022/10/04 01:35:40;;;;;;;;;;;;;;;11.43;100.00;102234.88;5015263;28;19928;-46
2022/10/04 01:38:06;;;;;;;;;;;;;;;11.44;100.00;102232.06;5017411;28;19924;-45
2022/10/04 01:40:32;;;;;;;;;;;;;;;11.46;100.00;102238.13;5018773;28;19917;-42
2022/10/04 01:43:01;;;;;;;;;;;;;;;11.47;100.00;102230.94;5017056;28;19924;-45
2022/10/04 01:45:34;;;;;;;;;;;;;;;11.49;100.00;102224.47;5011846;28;19924;-44
2022/10/04 01:48:01;;;;;;;;;;;;;;;11.50;100.00;102228.00;5018148;28;20430;-45
2022/10/04 01:50:32;;;;;;;;;;;;;;;11.49;100.00;102229.84;5017960;28;20380;-42
2022/10/04 01:53:10;;;;;;;;;;;;;;;11.48;100.00;102222.78;5016427;28;20331;-42
2022/10/04 01:55:36;;;;;;;;;;;;;;;11.46;100.00;102222.06;5017054;28;20024;-43
2022/10/04 01:58:19;;;;;;;;;;;;;;;11.44;100.00;102220.50;5016925;28;20315;-42
2022/10/04 02:00:52;;;;;;;;;;;;;;;11.38;100.00;102208.50;5017494;28;19913;-42
2022/10/04 02:03:24;;;;;;;;;;;;;;;11.27;100.00;102201.41;5017068;28;19921;-43
2022/10/04 02:05:51;;;;;;;;;;;;;;;11.26;100.00;102201.53;5017913;28;19983;-43
2022/10/04 02:08:21;;;;;;;;;;;;;;;11.25;100.00;102200.69;5017489;28;19917;-42
2022/10/04 02:10:49;;;;;;;;;;;;;;;11.19;100.00;102194.03;5016883;28;20083;-43
2022/10/04 02:13:20;;;;;;;;;;;;;;;11.21;100.00;102196.59;5015495;28;21362;-45
2022/10/04 02:15:46;;;;;;;;;;;;;;;11.17;100.00;102179.97;5017042;28;19979;-44
2022/10/04 02:18:13;;;;;;;;;;;;;;;11.13;100.00;102165.19;5017205;28;19959;-42
2022/10/04 02:20:39;;;;;;;;;;;;;;;11.05;100.00;102166.78;5015983;28;19983;-43
2022/10/04 02:23:05;;;;;;;;;;;;;;;10.98;100.00;102171.81;5017250;28;19943;-44
2022/10/04 02:25:30;;;;;;;;;;;;;;;10.91;100.00;102173.31;5018081;28;20407;-44
2022/10/04 02:27:55;;;;;;;;;;;;;;;10.87;100.00;102161.22;5016232;28;19917;-44
2022/10/04 02:30:21;;;;;;;;;;;;;;;10.79;100.00;102162.72;5018287;28;19921;-46
2022/10/04 02:32:59;;;;;;;;;;;;;;;10.73;100.00;102168.56;5021393;28;20327;-46
2022/10/04 02:35:26;;;;;;;;;;;;;;;10.69;100.00;102155.59;5020914;28;19983;-43
2022/10/04 02:37:57;;;;;;;;;;;;;;;10.68;100.00;102151.25;5020642;28;19921;-44
2022/10/04 02:40:27;;;;;;;;;;;;;;;10.64;100.00;102154.16;5019065;28;19975;-42
2022/10/04 02:42:56;;;;;;;;;;;;;;;10.62;100.00;102141.91;5019296;28;19929;-43
2022/10/04 02:45:27;;;;;;;;;;;;;;;10.57;100.00;102136.09;5018163;28;19928;-45
2022/10/04 02:48:09;;;;;;;;;;;;;;;10.54;100.00;102128.34;5020277;28;19984;-46
2022/10/04 02:50:38;;;;;;;;;;;;;;;10.52;100.00;102120.47;5021380;28;20360;-43
2022/10/04 02:53:25;;;;;;;;;;;;;;;10.51;100.00;102123.28;5014231;28;19928;-42
2022/10/04 02:55:51;;;;;;;;;;;;;;;10.48;100.00;102119.03;5016455;28;20188;-46
2022/10/04 02:58:18;;;;;;;;;;;;;;;10.47;100.00;102113.81;5019439;28;19917;-41
2022/10/04 03:00:48;;;;;;;;;;;;;;;10.44;100.00;102105.09;5019455;28;20119;-46
2022/10/04 03:03:25;;;;;;;;;;;;;;;10.43;100.00;102103.38;5020277;28;19921;-44
2022/10/04 03:06:11;;;;;;;;;;;;;;;10.40;100.00;102106.34;5019482;28;19982;-44
2022/10/04 03:08:43;;;;;;;;;;;;;;;10.38;100.00;102110.09;5019208;28;19925;-42
2022/10/04 03:11:10;;;;;;;;;;;;;;;10.37;100.00;102103.03;5020488;28;20132;-43
2022/10/04 03:13:36;;;;;;;;;;;;;;;10.33;100.00;102102.47;5019583;28;19927;-46
2022/10/04 03:16:01;;;;;;;;;;;;;;;10.30;100.00;102102.69;5019531;28;20260;-45
2022/10/04 03:18:28;;;;;;;;;;;;;;;10.27;100.00;102095.78;5020559;28;19917;-45
2022/10/04 03:20:53;;;;;;;;;;;;;;;10.25;100.00;102095.06;5020192;28;20327;-45
2022/10/04 03:23:19;;;;;;;;;;;;;;;10.22;100.00;102084.63;5020207;28;19994;-44
2022/10/04 03:25:50;;;;;;;;;;;;;;;10.19;100.00;102082.22;5020199;28;19921;-43
2022/10/04 03:28:15;;;;;;;;;;;;;;;10.18;100.00;102079.69;5019212;28;20283;-43
2022/10/04 03:30:44;;;;;;;;;;;;;;;10.13;100.00;102076.53;5019301;28;19920;-43
2022/10/04 03:33:15;;;;;;;;;;;;;;;10.06;100.00;102082.41;5019442;28;19921;-42
2022/10/04 03:35:40;;;;;;;;;;;;;;;10.02;100.00;102086.28;5020709;28;20367;-43
2022/10/04 03:38:07;;;;;;;;;;;;;;;9.98;100.00;102082.19;5019341;28;20004;-44
2022/10/04 03:40:36;;;;;;;;;;;;;;;9.95;100.00;102085.13;5020377;28;19928;-45
2022/10/04 03:43:03;;;;;;;;;;;;;;;9.89;100.00;102078.47;5017682;28;19968;-43
2022/10/04 03:45:28;;;;;;;;;;;;;;;9.87;100.00;102076.88;5010379;28;20012;-45
2022/10/04 03:47:57;;;;;;;;;;;;;;;9.84;100.00;102075.34;5020039;28;20897;-43
2022/10/04 03:50:28;;;;;;;;;;;;;;;9.84;100.00;102069.13;5019703;28;19920;-43
2022/10/04 03:52:55;;;;;;;;;;;;;;;9.85;100.00;102065.50;5011814;28;19982;-44
2022/10/04 03:55:23;;;;;;;;;;;;;;;9.86;100.00;102061.84;5018046;28;19920;-42
2022/10/04 03:57:48;;;;;;;;;;;;;;;9.83;100.00;102057.63;5018691;28;19962;-45
2022/10/04 04:00:17;;;;;;;;;;;;;;;9.83;100.00;102068.28;5018074;28;19917;-43
2022/10/04 04:02:46;;;;;;;;;;;;;;;9.81;100.00;102058.69;5019944;28;20276;-41
2022/10/04 04:05:16;;;;;;;;;;;;;;;9.82;100.00;102057.75;5019053;28;19927;-44
2022/10/04 04:07:44;;;;;;;;;;;;;;;9.83;100.00;102062.13;5020083;28;20288;-45
2022/10/04 04:10:27;;;;;;;;;;;;;;;9.80;100.00;102059.69;5019480;28;20403;-45
2022/10/04 04:12:58;;;;;;;;;;;;;;;9.75;100.00;102065.41;5011844;28;19967;-45
2022/10/04 04:15:28;;;;;;;;;;;;;;;9.71;100.00;102066.63;5018393;28;20573;-43
2022/10/04 04:17:54;;;;;;;;;;;;;;;9.66;100.00;102060.84;5019195;28;19979;-43
2022/10/04 04:20:33;;;;;;;;;;;;;;;9.64;100.00;102057.41;5019169;28;20368;-43
2022/10/04 04:23:01;;;;;;;;;;;;;;;9.64;100.00;102060.09;5018781;28;20069;-43
2022/10/04 04:25:28;;;;;;;;;;;;;;;9.61;100.00;102063.03;5017751;28;20442;-41
2022/10/04 04:28:01;;;;;;;;;;;;;;;9.57;100.00;102058.91;5017665;28;19921;-44
2022/10/04 04:30:27;;;;;;;;;;;;;;;9.55;100.00;102058.19;5017882;28;20038;-43
2022/10/04 04:32:55;;;;;;;;;;;;;;;9.54;100.00;102057.34;5018606;28;19966;-42
2022/10/04 04:35:29;;;;;;;;;;;;;;;9.56;100.00;102055.38;5008772;28;20219;-47
2022/10/04 04:38:01;;;;;;;;;;;;;;;9.58;100.00;102053.44;5006006;28;19925;-42
2022/10/04 04:40:26;;;;;;;;;;;;;;;9.60;100.00;102061.31;5021650;28;19925;-46
2022/10/04 04:42:52;;;;;;;;;;;;;;;9.62;100.00;102054.91;4997769;28;20181;-47
2022/10/04 04:45:20;;;;;;;;;;;;;;;9.63;100.00;102056.56;4999790;28;19921;-44
2022/10/04 04:47:50;;;;;;;;;;;;;;;9.66;100.00;102047.50;5003293;28;19921;-43
2022/10/04 04:50:15;;;;;;;;;;;;;;;9.64;100.00;102049.41;5001137;28;20040;-46
2022/10/04 04:52:43;;;;;;;;;;;;;;;9.63;100.00;102045.06;5001498;28;20023;-43
2022/10/04 04:55:16;;;;;;;;;;;;;;;9.61;100.00;102045.19;5009306;28;19921;-44
2022/10/04 04:57:43;;;;;;;;;;;;;;;9.56;100.00;102050.06;5017194;28;20621;-47
2022/10/04 05:00:14;;;;;;;;;;;;;;;9.54;100.00;102049.34;5013663;28;19947;-44
2022/10/04 05:02:49;;;;;;;;;;;;;;;9.50;100.00;102051.41;5006437;28;19921;-43
2022/10/04 05:05:24;;;;;;;;;;;;;;;9.45;100.00;102045.59;5011219;28;19979;-45
2022/10/04 05:08:02;;;;;;;;;;;;;;;9.42;100.00;102048.50;5010611;28;20147;-44
2022/10/04 05:10:30;;;;;;;;;;;;;;;9.40;100.00;102052.25;5016159;28;20187;-43
2022/10/04 05:12:55;;;;;;;;;;;;;;;9.34;100.00;102048.28;5010239;28;19924;-42
2022/10/04 05:15:21;;;;;;;;;;;;;;;9.29;100.00;102034.47;5008969;28;20386;-42
2022/10/04 05:17:46;;;;;;;;;;;;;;;9.22;100.00;102034.13;4999841;28;19925;-43
2022/10/04 05:20:13;;;;;;;;;;;;;;;9.18;100.00;102032.66;5006285;28;19937;-42
2022/10/04 05:22:40;;;;;;;;;;;;;;;9.13;100.00;102033.03;5005372;28;20125;-41
2022/10/04 05:25:09;;;;;;;;;;;;;;;9.10;100.00;102035.94;5005047;28;20031;-44
2022/10/04 05:27:39;;;;;;;;;;;;;;;9.11;100.00;102042.09;5006961;28;20019;-42
2022/10/04 05:30:04;;;;;;;;;;;;;;;9.12;100.00;102047.31;5002138;28;21057;-42
2022/10/04 05:32:38;;;;;;;;;;;;;;;9.11;100.00;102047.44;5003561;28;19922;-41
2022/10/04 05:35:17;;;;;;;;;;;;;;;9.12;100.00;102059.81;5003122;28;20252;-42
2022/10/04 05:38:01;;;;;;;;;;;;;;;9.11;100.00;102050.97;5016074;28;19914;-44
2022/10/04 05:40:31;;;;;;;;;;;;;;;9.13;100.00;102058.81;5003605;28;19917;-44
2022/10/04 05:42:58;;;;;;;;;;;;;;;9.16;100.00;102053.25;4998698;28;19933;-41
2022/10/04 05:45:25;;;;;;;;;;;;;;;9.17;100.00;102056.78;5000858;28;19929;-40
2022/10/04 05:48:00;;;;;;;;;;;;;;;9.17;100.00;102051.44;5002977;28;20335;-43
2022/10/04 05:50:39;;;;;;;;;;;;;;;9.14;100.00;102049.88;5008162;28;19921;-42
2022/10/04 05:53:07;;;;;;;;;;;;;;;9.17;100.00;102062.97;5004167;28;20294;-44
2022/10/04 05:55:51;;;;;;;;;;;;;;;9.20;100.00;102062.72;5010984;28;20011;-44
2022/10/04 05:58:36;;;;;;;;;;;;;;;9.26;100.00;102070.22;5010600;28;21466;-45
2022/10/04 06:01:20;;;;;;;;;;;;;;;9.31;100.00;102065.34;5010573;28;19974;-41
2022/10/04 06:04:04;;;;;;;;;;;;;;;9.36;100.00;102065.00;5003145;28;20012;-46
2022/10/04 06:06:32;;;;;;;;;;;;;;;9.43;100.00;102065.34;5013261;28;19925;-44
2022/10/04 06:09:08;;;;;;;;;;;;;;;9.47;100.00;102059.66;5007501;28;20264;-43
2022/10/04 06:12:01;;;;;;;;;;;;;;;9.53;100.00;102066.31;5005430;28;19913;-42
2022/10/04 06:14:32;;;;;;;;;;;;;;;9.56;100.00;102070.56;5006897;28;19921;-42
2022/10/04 06:17:16;;;;;;;;;;;;;;;9.57;100.00;102064.22;5007845;28;20032;-46
2022/10/04 06:19:54;;;;;;;;;;;;;;;9.62;100.00;102070.03;5002626;28;20309;-44
2022/10/04 06:22:20;;;;;;;;;;;;;;;9.68;100.00;102069.53;5001820;28;20008;-44
2022/10/04 06:24:51;;;;;;;;;;;;;;;9.70;100.00;102060.44;5001582;28;20056;-46
2022/10/04 06:27:19;;;;;;;;;;;;;;;9.72;100.00;102060.31;5011438;28;19917;-43
2022/10/04 06:29:47;;;;;;;;;;;;;;;9.69;100.00;102056.09;5006164;28;20344;-42
2022/10/04 06:32:33;;;;;;;;;;;;;;;9.68;100.00;102057.06;5015889;28;19917;-42
2022/10/04 06:35:17;;;;;;;;;;;;;;;9.67;100.00;102065.19;5004808;28;19935;-41
2022/10/04 06:37:42;;;;;;;;;;;;;;;9.68;100.00;102053.53;5016078;28;19917;-44
2022/10/04 06:40:24;;;;;;;;;;;;;;;9.68;100.00;102069.53;5013031;28;20004;-44
2022/10/04 06:43:08;;;;;;;;;;;;;;;9.66;100.00;102058.16;5006516;28;19995;-46
2022/10/04 06:45:48;;;;;;;;;;;;;;;9.64;100.00;102054.75;5020118;28;19913;-43
2022/10/04 06:48:19;;;;;;;;;;;;;;;9.62;100.00;102054.03;5007642;28;19990;-46
2022/10/04 06:51:02;;;;;;;;;;;;;;;9.58;100.00;102052.59;5001860;28;20402;-45
2022/10/04 06:53:57;;;;;;;;;;;;;;;9.53;100.00;102048.47;5006084;28;19924;-45
2022/10/04 06:56:22;;;;;;;;;;;;;;;9.49;100.00;102049.69;5017257;28;19943;-45
2022/10/04 06:59:01;;;;;;;;;;;;;;;9.48;100.00;102052.50;5011384;28;20101;-43
2022/10/04 07:01:31;;;;;;;;;;;;;;;9.49;100.00;102054.19;5004475;28;19918;-41
2022/10/04 07:04:03;;;;;;;;;;;;;;;9.51;100.00;102046.91;5001908;28;20427;-42
2022/10/04 07:06:32;;;;;;;;;;;;;;;9.55;100.00;102045.69;5009782;28;20288;-42
2022/10/04 07:09:01;;;;;;;;;;;;;;;9.57;100.00;102050.91;5016852;28;20016;-42
2022/10/04 07:11:35;;;;;;;;;;;;;;;9.58;100.00;102047.25;5021927;28;20391;-42
2022/10/04 07:14:16;;;;;;;;;;;;;;;9.61;100.00;102042.53;5002961;28;20453;-42
2022/10/04 07:16:50;;;;;;;;;;;;;;;9.67;100.00;102042.03;5011512;28;19917;-41
2022/10/04 07:19:16;;;;;;;;;;;;;;;9.64;100.00;102028.94;5015126;28;20314;-43
2022/10/04 07:22:02;;;;;;;;;;;;;;;9.78;100.00;102033.13;5008018;28;19944;-44
2022/10/04 07:24:31;;;;;;;;;;;;;;;9.92;100.00;102039.16;5001153;28;20004;-45
2022/10/04 07:26:57;;;;;;;;;;;;;;;10.04;100.00;102041.63;4999016;28;19923;-44
2022/10/04 07:29:27;;;;;;;;;;;;;;;10.19;100.00;102044.00;4998693;28;20530;-45
2022/10/04 07:32:04;;;;;;;;;;;;;;;10.27;100.00;102041.53;4999772;28;20244;-47
2022/10/04 07:34:39;;;;;;;;;;;;;;;10.35;100.00;102033.78;5000395;28;20006;-42
2022/10/04 07:37:11;;;;;;;;;;;;;;;10.47;100.00;102045.19;4999873;28;20415;-45
2022/10/04 07:39:55;;;;;;;;;;;;;;;10.59;100.00;102041.50;5005144;28;19926;-43
2022/10/04 07:42:39;;;;;;;;;;;;;;;10.73;100.00;102050.16;5012733;28;20012;-45
2022/10/04 07:45:14;;;;;;;;;;;;;;;10.83;100.00;102049.22;5003414;28;19984;-42
2022/10/04 07:47:40;;;;;;;;;;;;;;;10.99;100.00;102053.22;5000328;28;19956;-42
2022/10/04 07:50:18;;;;;;;;;;;;;;;11.09;100.00;102053.28;5013904;28;19936;-42
2022/10/04 07:52:51;;;;;;;;;;;;;;;11.21;100.00;102049.50;5012217;28;20312;-41
2022/10/04 07:55:16;;;;;;;;;;;;;;;11.29;100.00;102046.16;5015557;28;19988;-43
2022/10/04 07:57:47;;;;;;;;;;;;;;;11.36;100.00;102042.81;5018598;28;20114;-44
2022/10/04 08:00:16;;;;;;;;;;;;;;;11.48;100.00;102035.50;5017572;28;20186;-44
2022/10/04 08:02:59;;;;;;;;;;;;;;;11.56;100.00;102043.69;5019156;28;19917;-42
2022/10/04 08:05:34;;;;;;;;;;;;;;;11.64;100.00;102042.97;5019161;28;19932;-45
2022/10/04 08:08:22;;;;;;;;;;;;;;;11.72;100.00;102039.63;5019311;28;20500;-45
2022/10/04 08:10:57;;;;;;;;;;;;;;;11.73;100.00;102036.81;5018457;28;20427;-42
2022/10/04 08:13:46;;;;;;;;;;;;;;;11.71;100.00;102038.78;5016531;28;20071;-44
2022/10/04 08:16:31;;;;;;;;;;;;;;;11.74;100.00;102035.84;5018336;28;19921;-44
2022/10/04 08:19:16;;;;;;;;;;;;;;;11.87;100.00;102038.22;5017234;28;19917;-45
2022/10/04 08:22:00;;;;;;;;;;;;;;;12.00;100.00;102029.09;5019541;28;19924;-44
2022/10/04 08:24:28;;;;;;;;;;;;;;;12.12;100.00;102026.16;5019109;28;20037;-50
2022/10/04 08:26:56;;;;;;;;;;;;;;;12.27;100.00;102028.38;5016919;28;19913;-45
2022/10/04 08:29:42;;;;;;;;;;;;;;;12.39;100.00;102027.25;5017256;28;20444;-43
2022/10/04 08:32:24;;;;;;;;;;;;;;;12.54;100.00;102041.00;5018437;28;19913;-47
2022/10/04 08:34:56;;;;;;;;;;;;;;;12.49;100.00;102038.78;5017338;28;19974;-47
2022/10/04 08:37:34;;;;;;;;;;;;;;;12.46;100.00;102046.28;5015303;28;19986;-43
2022/10/04 08:40:18;;;;;;;;;;;;;;;12.55;100.00;102041.88;5018284;28;19917;-42
2022/10/04 08:43:00;;;;;;;;;;;;;;;12.72;100.00;102046.47;5016838;28;19928;-43
2022/10/04 08:45:30;;;;;;;;;;;;;;;12.88;100.00;102037.81;5016634;28;20198;-47
2022/10/04 08:48:17;;;;;;;;;;;;;;;12.96;100.00;102047.81;5017877;28;19917;-43
2022/10/04 08:50:43;;;;;;;;;;;;;;;12.99;100.00;102044.84;5017691;28;20454;-42
2022/10/04 08:53:20;;;;;;;;;;;;;;;13.11;100.00;102045.50;5017962;28;20019;-47
2022/10/04 08:56:06;;;;;;;;;;;;;;;13.17;100.00;102037.69;5018287;28;19917;-44
2022/10/04 08:58:50;;;;;;;;;;;;;;;13.22;100.00;102035.41;5016467;28;20255;-44
2022/10/04 09:01:15;;;;;;;;;;;;;;;13.27;100.00;102026.06;5017966;28;20394;-43
2022/10/04 09:03:40;;;;;;;;;;;;;;;13.38;100.00;102050.88;5032950;28;20042;-44
2022/10/04 09:06:11;;;;;;;;;;;;;;;13.49;100.00;102048.97;5017959;28;20343;-41
2022/10/04 09:08:43;;;;;;;;;;;;;;;13.60;100.00;102051.47;5018685;28;19914;-44
2022/10/04 09:11:17;;;;;;;;;;;;;;;13.64;100.00;102049.31;5012440;28;19964;-42
2022/10/04 09:13:48;;;;;;;;;;;;;;;13.74;100.00;102052.78;5010043;28;19917;-46
2022/10/04 09:16:34;;;;;;;;;;;;;;;13.86;100.00;102046.19;5003431;28;19997;-43
2022/10/04 09:19:18;;;;;;;;;;;;;;;13.91;100.00;102043.03;5017298;28;19936;-44
2022/10/04 09:21:46;;;;;;;;;;;;;;;14.09;100.00;102040.34;5016651;28;20394;-43
2022/10/04 09:24:17;;;;;;;;;;;;;;;14.19;100.00;102038.44;5017169;28;19956;-43
2022/10/04 09:26:44;;;;;;;;;;;;;;;14.20;100.00;102028.50;5018091;28;20343;-43
2022/10/04 09:29:26;;;;;;;;;;;;;;;14.22;100.00;102034.56;5015306;28;19956;-42
2022/10/04 09:31:54;;;;;;;;;;;;;;;14.36;100.00;102032.16;5017591;28;20110;-43
2022/10/04 09:34:37;;;;;;;;;;;;;;;14.39;100.00;102035.53;5007028;28;19913;-45
2022/10/04 09:37:11;;;;;;;;;;;;;;;14.46;100.00;102028.53;5017903;28;20338;-42
2022/10/04 09:39:45;;;;;;;;;;;;;;;14.54;100.00;102018.69;5017284;28;19994;-43
2022/10/04 09:42:25;;;;;;;;;;;;;;;14.66;100.00;102013.06;5016181;28;20292;-44
2022/10/04 09:44:56;;;;;;;;;;;;;;;14.69;100.00;102016.28;5015976;28;20538;-46
2022/10/04 09:47:41;;;;;;;;;;;;;;;14.78;100.00;102014.47;5017748;28;19996;-43
2022/10/04 09:50:17;;;;;;;;;;;;;;;14.85;100.00;102020.03;5016397;28;20012;-46
2022/10/04 09:53:03;;;;;;;;;;;;;;;14.95;100.00;102028.00;5012586;28;20083;-46
2022/10/04 09:55:45;;;;;;;;;;;;;;;14.98;100.00;102025.00;5013653;28;19924;-43
2022/10/04 09:58:28;;;;;;;;;;;;;;;15.04;100.00;102030.56;4999662;28;19937;-44
2022/10/04 10:01:02;;;;;;;;;;;;;;;15.26;100.00;102029.16;5002516;28;20337;-44
2022/10/04 10:03:30;;;;;;;;;;;;;;;15.42;100.00;102017.56;5007830;28;19936;-43
2022/10/04 10:06:07;;;;;;;;;;;;;;;15.44;100.00;102026.34;5001555;28;19925;-48
2022/10/04 10:08:44;;;;;;;;;;;;;;;15.53;100.00;102023.66;5000634;28;19957;-42
2022/10/04 10:14:15;;;;;;;;;;;;;;;15.66;100.00;102024.03;4995982;28;19925;-40
2022/10/04 10:16:47;;;;;;;;;;;;;;;15.76;99.55;102022.03;5010471;28;19948;-45
2022/10/04 10:19:31;;;;;;;;;;;;;;;15.84;99.10;102010.44;5011293;28;19929;-45
2022/10/04 10:22:14;;;;;;;;;;;;;;;16.03;98.12;102002.03;5002943;28;19914;-45
2022/10/04 10:24:52;;;;;;;;;;;;;;;16.16;96.68;102009.59;4998528;28;19971;-45
2022/10/04 10:27:18;;;;;;;;;;;;;;;15.97;95.25;102007.25;5008332;28;20316;-44
2022/10/04 10:30:02;;;;;;;;;;;;;;;16.04;96.83;102009.09;5011062;28;19913;-43
2022/10/04 10:32:37;;;;;;;;;;;;;;;16.15;95.64;102007.09;4998933;28;19920;-43
2022/10/04 10:35:15;;;;;;;;;;;;;;;16.32;95.71;102006.03;4997369;28;20184;-43
2022/10/04 10:37:46;;;;;;;;;;;;;;;16.57;93.78;101993.34;5004082;28;19914;-44
2022/10/04 10:40:15;;;;;;;;;;;;;;;16.78;89.76;101992.81;4997171;28;19927;-43
2022/10/04 10:42:58;;;;;;;;;;;;;;;16.85;90.06;102011.00;4996315;28;20040;-44
2022/10/04 10:45:26;;;;;;;;;;;;;;;16.83;89.72;102011.16;4996163;28;20361;-48
2022/10/04 10:48:09;;;;;;;;;;;;;;;16.99;86.86;102013.00;5012120;28;19929;-44
2022/10/04 10:50:57;;;;;;;;;;;;;;;17.14;85.96;102022.03;5020981;28;19943;-45
2022/10/04 10:53:40;;;;;;;;;;;;;;;17.26;84.13;102025.19;5011548;28;20016;-42
2022/10/04 10:56:24;;;;;;;;;;;;;;;17.13;87.23;102014.94;5008418;28;19913;-43
2022/10/04 10:59:04;;;;;;;;;;;;;;;16.96;86.63;102008.78;5016823;28;19936;-41
2022/10/04 11:01:46;;;;;;;;;;;;;;;16.79;85.17;102007.13;5020134;28;19986;-42
2022/10/04 11:04:30;;;;;;;;;;;;;;;16.67;86.70;102005.81;5019220;28;19995;-42
2022/10/04 11:07:01;;;;;;;;;;;;;;;16.85;86.40;102002.91;5019695;28;19932;-43
2022/10/04 11:09:32;;;;;;;;;;;;;;;17.07;85.03;101987.81;5000282;28;20004;-43
2022/10/04 11:12:10;;;;;;;;;;;;;;;17.30;85.41;101985.16;5005790;28;20030;-43
2022/10/04 11:14:54;;;;;;;;;;;;;;;17.52;85.08;101983.50;5004399;28;19932;-43
2022/10/04 11:17:25;;;;;;;;;;;;;;;17.64;83.91;101983.94;4999774;28;20375;-44
2022/10/04 11:19:51;;;;;;;;;;;;;;;17.68;80.18;101980.69;5000655;28;19921;-42
2022/10/04 11:22:35;;;;;;;;;;;;;;;17.63;79.02;101976.84;5001547;28;20236;-43
2022/10/04 11:25:03;;;;;;;;;;;;;;;17.76;81.52;101971.69;5000833;28;20028;-45
2022/10/04 11:27:38;;;;;;;;;;;;;;;18.08;80.35;101964.34;5010445;28;19913;-44
2022/10/04 11:30:16;;;;;;;;;;;;;;;18.38;76.46;101967.06;4999369;28;19917;-42
2022/10/04 11:32:58;;;;;;;;;;;;;;;18.26;74.10;101959.44;5018874;28;19921;-42
2022/10/04 11:35:30;;;;;;;;;;;;;;;18.30;75.74;101964.47;5008398;28;20003;-44
2022/10/04 11:38:14;;;;;;;;;;;;;;;18.26;78.05;101959.44;5002562;28;19921;-43
2022/10/04 11:40:42;;;;;;;;;;;;;;;18.52;76.68;101962.72;5000484;28;20000;-43
2022/10/04 11:43:07;;;;;;;;;;;;;;;18.77;75.54;101947.00;4998642;28;19917;-42
2022/10/04 11:45:37;;;;;;;;;;;;;;;19.10;72.84;101952.88;5005583;28;19924;-48
2022/10/04 11:48:10;;;;;;;;;;;;;;;19.20;71.48;101950.69;5003392;28;19917;-43
2022/10/04 11:50:37;;;;;;;;;;;;;;;19.08;69.74;101948.69;5000086;28;21373;-43
2022/10/04 11:53:25;;;;;;;;;;;;;;;18.86;68.76;101942.38;5013373;28;20349;-44
2022/10/04 11:56:17;;;;;;;;;;;;;;;18.77;68.29;101930.78;5012294;28;19925;-44
2022/10/04 11:58:51;;;;;;;;;;;;;;;18.65;71.03;101935.81;5016286;28;19960;-44
2022/10/04 12:01:29;;;;;;;;;;;;;;;18.63;71.93;101938.75;5016193;28;19917;-44
2022/10/04 12:04:08;;;;;;;;;;;;;;;18.69;71.35;101936.31;5027621;28;19926;-45
2022/10/04 12:07:01;;;;;;;;;;;;;;;18.79;72.39;101939.56;5011452;28;19928;-45
2022/10/04 12:09:39;;;;;;;;;;;;;;;18.68;69.92;101945.44;5010962;28;19921;-44
2022/10/04 12:14:57;;;;;;;;;;;;;;;18.46;72.87;101939.94;4998153;28;19975;-44
2022/10/04 12:17:28;;;;;;;;;;;;;;;18.40;73.67;101938.00;4999393;28;20299;-41
2022/10/04 12:20:05;;;;;;;;;;;;;;;18.43;74.47;101934.91;4997758;28;19989;-42
2022/10/04 12:22:42;;;;;;;;;;;;;;;18.36;72.41;101932.09;4999391;28;19921;-44
2022/10/04 12:25:20;;;;;;;;;;;;;;;18.66;72.49;101929.38;5005358;28;20291;-43
2022/10/04 12:27:47;;;;;;;;;;;;;;;18.94;69.49;101929.56;5013311;28;20395;-45
2022/10/04 12:30:35;;;;;;;;;;;;;;;19.54;69.33;101930.19;5008973;28;19981;-44
2022/10/04 12:33:09;;;;;;;;;;;;;;;20.39;63.56;101938.38;5009947;28;19967;-46
2022/10/04 12:35:35;;;;;;;;;;;;;;;20.72;63.09;101917.91;5017196;28;20367;-44
2022/10/04 12:38:11;;;;;;;;;;;;;;;21.01;60.83;101920.31;5004239;28;20000;-46
2022/10/04 12:40:42;;;;;;;;;;;;;;;21.16;60.29;101905.72;5008426;28;19912;-43
2022/10/04 12:43:23;;;;;;;;;;;;;;;21.32;60.56;101904.50;5007959;28;19921;-42
2022/10/04 12:45:55;;;;;;;;;;;;;;;21.53;64.35;101904.34;5000122;28;19944;-45
2022/10/04 12:48:42;;;;;;;;;;;;;;;22.09;58.19;101905.75;4996445;28;20476;-44
2022/10/04 12:51:13;;;;;;;;;;;;;;;22.17;55.46;101907.44;4996184;28;19924;-43
2022/10/04 12:53:41;;;;;;;;;;;;;;;22.27;60.20;101896.94;4998706;28;19921;-45
2022/10/04 12:56:20;;;;;;;;;;;;;;;22.75;54.83;101893.03;5016043;28;19959;-44
2022/10/04 12:59:04;;;;;;;;;;;;;;;22.85;51.56;101890.66;5012809;28;19983;-45
2022/10/04 13:01:48;;;;;;;;;;;;;;;22.99;53.09;101888.69;5014698;28;19917;-44
2022/10/04 13:04:22;;;;;;;;;;;;;;;22.99;53.31;101885.97;5010845;28;20142;-45
2022/10/04 13:06:47;;;;;;;;;;;;;;;23.24;51.09;101898.88;5008414;28;20100;-45
2022/10/04 13:09:18;;;;;;;;;;;;;;;23.04;50.93;101902.50;5000653;28;19928;-46
2022/10/04 13:11:55;;;;;;;;;;;;;;;22.90;48.38;101890.03;5012222;28;19921;-45